Terminal Aerodrome Forecast
Issued by NWS Charleston, WV

Current Version | Previous Version | Graphics & Text | Print | Product List | Glossary On
Versions: 1 2 3 4 5 6 7 8 9 10 11 12 13 14 15 16 17 18 19 20 21 22 23 24 25
514
FTUS41 KRLX 242359 CCA
TAFBKW
TAF COR
KBKW 242359Z 2500/2524 11008KT P6SM -SHRA OVC015
     FM250500 11006KT 5SM -SHRA BR OVC015
     FM250800 VRB03KT 2SM -SHRA BR OVC004
     FM251500 31004KT 5SM -SHRA OVC004
     FM251800 31006KT P6SM -SHRA OVC007=

USA.gov is the U.S. government's official web portal to all federal, state and local government web resources and services.